Time;durP1;ratioP1;P1;durP2;ratioP2;P2;SDS_P1;SDS_P2;PMS_P1;PMS_P2;Temp;Humidity;BMP_temperature;BMP_pressure;BME280_temperature;BME280_humidity;BME280_pressure;Samples;Min_cycle;Max_cycle;Signal;HPM_P1;HPM_P2
2021/08/04 00:00:42;;;;;;;;;;;;;;;17.92;69.89;97989.54;1698337;84;25775;-89
2021/08/04 00:03:09;;;;;;;;;;;;;;;17.94;69.97;97991.05;1716003;83;20276;-88
2021/08/04 00:05:35;;;;;;;;;;;;;;;17.95;70.06;97983.91;1734947;82;20223;-89
2021/08/04 00:08:02;;;;;;;;;;;;;;;17.92;70.12;97979.78;1699665;84;20768;-89
2021/08/04 00:10:29;;;;;;;;;;;;;;;17.94;70.19;97981.78;1702895;83;26099;-88
2021/08/04 00:12:56;;;;;;;;;;;;;;;17.99;70.28;97983.93;1704740;84;24622;-88
2021/08/04 00:15:22;;;;;;;;;;;;;;;18.01;70.38;97995.66;1737684;81;20493;-88
2021/08/04 00:17:49;;;;;;;;;;;;;;;17.99;70.42;97995.84;1735544;82;20737;-87
2021/08/04 00:20:15;;;;;;;;;;;;;;;18.00;70.50;97994.86;1736684;82;21938;-88
2021/08/04 00:22:41;;;;;;;;;;;;;;;18.02;70.55;98006.09;1738196;82;26798;-87
2021/08/04 00:25:07;;;;;;;;;;;;;;;18.04;70.62;98004.61;1734518;82;20909;-88
2021/08/04 00:27:34;;;;;;;;;;;;;;;18.06;70.65;98011.87;1735286;82;20229;-87
2021/08/04 00:30:00;;;;;;;;;;;;;;;18.06;70.72;98011.39;1735956;82;24809;-87
2021/08/04 00:32:28;;;;;;;;;;;;;;;18.04;70.78;98016.04;1734722;82;22047;-87
2021/08/04 00:34:54;;;;;;;;;;;;;;;17.96;70.82;98039.35;1726843;82;26184;-87
2021/08/04 00:37:20;;;;;;;;;;;;;;;17.87;70.87;98048.77;1741921;82;20908;-87
2021/08/04 00:39:46;;;;;;;;;;;;;;;17.79;70.95;98051.39;1739953;82;20459;-87
2021/08/04 00:42:12;;;;;;;;;;;;;;;17.72;71.00;98063.14;1733368;82;24725;-87
2021/08/04 00:44:47;;;;;;;;;;;;;;;17.65;71.09;98060.80;1736016;82;22853;-87
2021/08/04 00:47:17;;;;;;;;;;;;;;;17.59;71.18;98054.78;1732149;82;26790;-87
2021/08/04 00:49:43;;;;;;;;;;;;;;;17.53;71.29;98044.83;1735193;82;24462;-88
2021/08/04 00:52:09;;;;;;;;;;;;;;;17.48;71.42;98053.26;1733234;82;20282;-88
2021/08/04 00:54:36;;;;;;;;;;;;;;;17.44;71.55;98046.63;1737014;82;24700;-88
2021/08/04 00:57:02;;;;;;;;;;;;;;;17.40;71.67;98048.44;1752706;80;21971;-87
2021/08/04 00:59:28;;;;;;;;;;;;;;;17.37;71.81;98046.92;1767655;80;26177;-88
2021/08/04 01:01:58;;;;;;;;;;;;;;;17.34;71.93;98049.07;1762155;80;20220;-87
2021/08/04 01:04:31;;;;;;;;;;;;;;;17.32;72.04;98041.28;1761043;80;20245;-87
2021/08/04 01:07:14;;;;;;;;;;;;;;;17.31;72.15;98034.83;1735075;82;24755;-87
2021/08/04 01:09:48;;;;;;;;;;;;;;;17.32;72.26;98032.52;1765912;81;22062;-87
2021/08/04 01:12:21;;;;;;;;;;;;;;;17.34;72.35;98028.74;1762093;80;26627;-88
2021/08/04 01:14:51;;;;;;;;;;;;;;;17.31;72.44;98018.47;1756250;80;25343;-88
2021/08/04 01:17:18;;;;;;;;;;;;;;;17.35;72.51;98007.06;1764563;81;20479;-88
2021/08/04 01:19:55;;;;;;;;;;;;;;;17.40;72.58;98010.08;1761048;80;24814;-87
2021/08/04 01:22:41;;;;;;;;;;;;;;;17.44;72.62;98002.98;1757462;80;22127;-88
2021/08/04 01:25:17;;;;;;;;;;;;;;;17.50;72.68;98000.19;1765506;80;25667;-88
2021/08/04 01:27:44;;;;;;;;;;;;;;;17.50;72.73;97991.76;1763691;81;24471;-88
2021/08/04 01:30:11;;;;;;;;;;;;;;;17.43;72.80;97984.13;1765427;81;20208;-88
2021/08/04 01:32:37;;;;;;;;;;;;;;;17.35;72.86;97979.28;1765455;79;24803;-88
2021/08/04 01:35:03;;;;;;;;;;;;;;;17.30;72.93;97982.42;1768303;81;22068;-88
2021/08/04 01:37:35;;;;;;;;;;;;;;;17.27;73.04;97962.08;1767634;81;26038;-87
2021/08/04 01:40:02;;;;;;;;;;;;;;;17.20;73.16;97955.28;1743163;81;24563;-87
2021/08/04 01:42:31;;;;;;;;;;;;;;;17.10;73.27;97935.59;1754854;81;20201;-88
2021/08/04 01:44:59;;;;;;;;;;;;;;;17.13;73.36;97939.71;1768483;81;24825;-88
2021/08/04 01:47:32;;;;;;;;;;;;;;;17.13;73.49;97936.58;1768080;81;22718;-88
2021/08/04 01:50:04;;;;;;;;;;;;;;;17.10;73.59;97922.37;1765621;81;26085;-87
2021/08/04 01:52:30;;;;;;;;;;;;;;;17.02;73.67;97910.42;1769641;81;24486;-89
2021/08/04 01:54:57;;;;;;;;;;;;;;;16.97;73.77;97914.05;1743413;81;20254;-88
2021/08/04 01:57:23;;;;;;;;;;;;;;;17.07;73.88;97913.94;1740175;80;24756;-87
2021/08/04 01:59:55;;;;;;;;;;;;;;;17.12;73.99;97905.03;1739074;82;22000;-87
2021/08/04 02:02:25;;;;;;;;;;;;;;;17.14;74.09;97901.22;1767807;80;26777;-87
2021/08/04 02:04:52;;;;;;;;;;;;;;;17.19;74.16;97899.90;1752221;81;24444;-87
2021/08/04 02:07:19;;;;;;;;;;;;;;;17.15;74.20;97896.27;1752048;81;20215;-87
2021/08/04 02:09:47;;;;;;;;;;;;;;;17.12;74.27;97896.60;1752019;81;24892;-86
2021/08/04 02:12:15;;;;;;;;;;;;;;;17.11;74.30;97892.30;1765558;80;21933;-86
2021/08/04 02:14:42;;;;;;;;;;;;;;;17.18;74.37;97890.34;1772190;80;26192;-86
2021/08/04 02:17:27;;;;;;;;;;;;;;;17.13;74.41;97891.63;1761434;80;24508;-86
2021/08/04 02:19:54;;;;;;;;;;;;;;;17.05;74.44;97888.97;1740272;82;20232;-87
2021/08/04 02:22:27;;;;;;;;;;;;;;;16.94;74.42;97889.27;1746453;80;25699;-87
2021/08/04 02:24:55;;;;;;;;;;;;;;;16.88;74.44;97895.19;1734863;81;23074;-87
2021/08/04 02:27:22;;;;;;;;;;;;;;;16.84;74.43;97893.86;1771202;79;25986;-86
2021/08/04 02:29:49;;;;;;;;;;;;;;;16.90;74.49;97897.19;1767023;80;24423;-86
2021/08/04 02:32:15;;;;;;;;;;;;;;;16.99;74.50;97891.42;1759068;81;20316;-86
2021/08/04 02:34:42;;;;;;;;;;;;;;;17.02;74.55;97889.80;1752606;81;24683;-86
2021/08/04 02:37:09;;;;;;;;;;;;;;;17.04;74.56;97891.28;1752058;81;22050;-86
2021/08/04 02:39:35;;;;;;;;;;;;;;;17.03;74.58;97888.78;1738954;82;25969;-87
2021/08/04 02:42:09;;;;;;;;;;;;;;;17.00;74.57;97889.95;1740498;81;20258;-87
2021/08/04 02:44:35;;;;;;;;;;;;;;;17.03;74.62;97888.30;1763387;80;20450;-86
2021/08/04 02:47:01;;;;;;;;;;;;;;;17.18;74.66;97888.52;1773232;79;24823;-86
2021/08/04 02:49:27;;;;;;;;;;;;;;;17.30;74.68;97882.40;1769605;80;20888;-86
2021/08/04 02:51:58;;;;;;;;;;;;;;;17.32;74.66;97879.11;1767835;80;21051;-87
2021/08/04 02:54:26;;;;;;;;;;;;;;;17.38;74.65;97893.02;1746764;80;20562;-87
2021/08/04 02:56:52;;;;;;;;;;;;;;;17.46;74.62;97895.16;1769725;80;20193;-87
2021/08/04 02:59:19;;;;;;;;;;;;;;;17.54;74.59;97900.97;1711701;82;25359;-87
2021/08/04 03:01:45;;;;;;;;;;;;;;;17.58;74.51;97904.94;1739289;82;22094;-87
2021/08/04 03:04:11;;;;;;;;;;;;;;;17.58;74.48;97912.87;1735457;82;20991;-87
2021/08/04 03:06:37;;;;;;;;;;;;;;;17.57;74.39;97919.15;1707214;84;20848;-87
2021/08/04 03:09:03;;;;;;;;;;;;;;;17.55;74.38;97914.53;1721561;83;20220;-87
2021/08/04 03:11:29;;;;;;;;;;;;;;;17.50;74.30;97907.09;1720494;83;25726;-87
2021/08/04 03:13:55;;;;;;;;;;;;;;;17.46;74.28;97908.88;1716047;83;22035;-87
2021/08/04 03:16:29;;;;;;;;;;;;;;;17.26;74.24;97910.17;1716783;83;26725;-87
2021/08/04 03:18:59;;;;;;;;;;;;;;;17.06;74.24;97902.53;1720962;83;25250;-87
2021/08/04 03:21:24;;;;;;;;;;;;;;;16.94;74.26;97905.62;1722696;83;20200;-87
2021/08/04 03:23:50;;;;;;;;;;;;;;;16.87;74.31;97902.78;1718760;83;20617;-87
2021/08/04 03:26:16;;;;;;;;;;;;;;;16.82;74.32;97898.95;1722286;82;22046;-87
2021/08/04 03:28:45;;;;;;;;;;;;;;;16.78;74.33;97904.23;1720220;83;25975;-87
2021/08/04 03:31:15;;;;;;;;;;;;;;;16.83;74.37;97909.87;1718333;83;24801;-87
2021/08/04 03:33:41;;;;;;;;;;;;;;;16.89;74.38;97918.00;1701974;84;20535;-86
2021/08/04 03:36:06;;;;;;;;;;;;;;;16.96;74.38;97914.23;1700410;83;20741;-86
2021/08/04 03:38:33;;;;;;;;;;;;;;;16.91;74.38;97909.39;1737379;80;21926;-86
2021/08/04 03:40:59;;;;;;;;;;;;;;;16.84;74.38;97908.39;1730857;82;25934;-86
2021/08/04 03:43:33;;;;;;;;;;;;;;;16.76;74.38;97904.87;1737135;82;25535;-87
2021/08/04 03:45:59;;;;;;;;;;;;;;;16.66;74.39;97906.33;1705764;83;20303;-87
2021/08/04 03:48:25;;;;;;;;;;;;;;;16.58;74.40;97915.52;1691755;83;20243;-87
2021/08/04 03:50:51;;;;;;;;;;;;;;;16.52;74.44;97917.46;1722249;83;22058;-86
2021/08/04 03:53:20;;;;;;;;;;;;;;;16.52;74.49;97927.53;1723071;83;26070;-86
2021/08/04 03:55:46;;;;;;;;;;;;;;;16.54;74.52;97932.15;1719270;83;23960;-86
2021/08/04 03:58:12;;;;;;;;;;;;;;;16.58;74.55;97936.13;1732716;81;20300;-86
2021/08/04 04:00:43;;;;;;;;;;;;;;;16.65;74.59;97944.30;1749919;81;24749;-86
2021/08/04 04:03:11;;;;;;;;;;;;;;;16.69;74.62;97949.63;1741265;82;21898;-87
2021/08/04 04:05:37;;;;;;;;;;;;;;;16.77;74.66;97948.33;1736780;82;26197;-87
2021/08/04 04:08:04;;;;;;;;;;;;;;;16.86;74.69;97955.79;1738609;80;20278;-86
2021/08/04 04:10:30;;;;;;;;;;;;;;;16.94;74.71;97957.16;1735687;82;20300;-87
2021/08/04 04:12:56;;;;;;;;;;;;;;;17.00;74.77;97962.65;1712090;82;20211;-86
2021/08/04 04:15:23;;;;;;;;;;;;;;;17.08;74.84;97967.95;1713395;82;36397;-86
2021/08/04 04:17:50;;;;;;;;;;;;;;;17.20;74.87;97965.02;1769509;80;21114;-86
2021/08/04 04:20:19;;;;;;;;;;;;;;;17.31;74.91;97960.77;1739307;80;24041;-86
2021/08/04 04:22:46;;;;;;;;;;;;;;;17.37;74.96;97960.13;1734700;82;20164;-86
2021/08/04 04:25:15;;;;;;;;;;;;;;;17.49;74.98;97969.42;1772075;79;25635;-86
2021/08/04 04:27:42;;;;;;;;;;;;;;;17.57;74.99;97979.52;1772180;80;22160;-87
2021/08/04 04:30:08;;;;;;;;;;;;;;;17.67;75.00;97977.27;1718706;80;26045;-87
2021/08/04 04:32:34;;;;;;;;;;;;;;;17.68;75.01;97973.13;1749937;81;24469;-87
2021/08/04 04:35:00;;;;;;;;;;;;;;;17.68;75.02;97973.13;1749542;81;20296;-86
2021/08/04 04:37:32;;;;;;;;;;;;;;;17.78;75.03;97975.11;1745063;82;25494;-87
2021/08/04 04:39:58;;;;;;;;;;;;;;;17.83;75.02;97979.95;1740272;82;21990;-86
2021/08/04 04:42:24;;;;;;;;;;;;;;;17.85;74.99;97979.27;1733363;80;26017;-86
2021/08/04 04:44:51;;;;;;;;;;;;;;;17.86;74.99;97979.60;1749466;81;20317;-87
2021/08/04 04:47:17;;;;;;;;;;;;;;;17.77;74.99;97966.03;1750631;81;20174;-87
2021/08/04 04:49:43;;;;;;;;;;;;;;;17.67;75.00;97972.81;1751990;81;24934;-86
2021/08/04 04:52:09;;;;;;;;;;;;;;;17.67;75.05;97982.08;1751919;81;22041;-86
2021/08/04 04:54:35;;;;;;;;;;;;;;;17.73;75.11;97982.72;1741429;82;26131;-87
2021/08/04 04:57:01;;;;;;;;;;;;;;;17.78;75.16;97984.91;1778068;80;20881;-86
2021/08/04 04:59:27;;;;;;;;;;;;;;;17.81;75.23;97980.09;1766028;79;20310;-86
2021/08/04 05:01:54;;;;;;;;;;;;;;;17.90;75.28;97985.73;1735701;81;20286;-86
2021/08/04 05:04:19;;;;;;;;;;;;;;;17.99;75.32;97997.17;1762617;81;22067;-86
2021/08/04 05:06:46;;;;;;;;;;;;;;;17.99;75.35;97991.88;1751399;81;21102;-87
2021/08/04 05:09:11;;;;;;;;;;;;;;;17.96;75.39;97990.86;1740840;81;20861;-86
2021/08/04 05:11:37;;;;;;;;;;;;;;;17.96;75.45;97990.86;1743376;81;20467;-86
2021/08/04 05:14:03;;;;;;;;;;;;;;;17.91;75.50;97994.50;1770774;80;24806;-87
2021/08/04 05:16:29;;;;;;;;;;;;;;;17.89;75.58;97988.03;1736247;82;20845;-87
2021/08/04 05:18:55;;;;;;;;;;;;;;;18.02;75.65;98000.80;1764183;81;25971;-87
2021/08/04 05:21:22;;;;;;;;;;;;;;;18.19;75.67;98003.80;1762894;81;20291;-87
2021/08/04 05:23:50;;;;;;;;;;;;;;;18.37;75.66;98010.25;1770009;80;20510;-87
2021/08/04 05:26:17;;;;;;;;;;;;;;;18.50;75.65;98014.53;1766252;80;25539;-87
2021/08/04 05:28:43;;;;;;;;;;;;;;;18.59;75.64;98018.88;1766372;80;22085;-86
2021/08/04 05:31:21;;;;;;;;;;;;;;;18.66;75.63;98022.99;1772290;79;20949;-86
2021/08/04 05:33:50;;;;;;;;;;;;;;;18.68;75.64;98025.82;1766074;80;24539;-87
2021/08/04 05:36:16;;;;;;;;;;;;;;;18.73;75.59;98025.31;1769838;80;20228;-88
2021/08/04 05:38:45;;;;;;;;;;;;;;;18.77;75.53;98027.95;1767335;80;24716;-88
2021/08/04 05:41:17;;;;;;;;;;;;;;;18.78;75.50;98021.16;1772417;80;22036;-88
2021/08/04 05:43:43;;;;;;;;;;;;;;;18.77;75.43;98027.45;1773432;80;26133;-88
2021/08/04 05:46:09;;;;;;;;;;;;;;;18.82;75.36;98023.49;1768838;80;20241;-88
2021/08/04 05:48:35;;;;;;;;;;;;;;;18.80;75.29;98027.13;1766811;80;20244;-87
2021/08/04 05:51:07;;;;;;;;;;;;;;;18.83;75.25;98022.47;1726658;80;20190;-87
2021/08/04 05:53:33;;;;;;;;;;;;;;;18.88;75.22;98026.27;1768960;80;22057;-87
2021/08/04 05:55:58;;;;;;;;;;;;;;;18.95;75.21;98023.77;1771996;80;21004;-87
2021/08/04 05:58:24;;;;;;;;;;;;;;;18.96;75.18;98015.66;1769146;80;20340;-87
2021/08/04 06:00:50;;;;;;;;;;;;;;;18.98;75.15;98014.17;1761048;79;20296;-87
2021/08/04 06:03:16;;;;;;;;;;;;;;;19.02;75.12;98018.13;1753925;80;20240;-87
2021/08/04 06:05:47;;;;;;;;;;;;;;;19.06;75.10;98007.50;1761828;80;20303;-87
2021/08/04 06:08:16;;;;;;;;;;;;;;;19.10;75.07;98011.45;1740868;82;26879;-87
2021/08/04 06:10:42;;;;;;;;;;;;;;;19.16;75.03;98006.30;1758618;80;24596;-88
2021/08/04 06:13:08;;;;;;;;;;;;;;;19.21;75.01;98006.61;1759147;80;20463;-87
2021/08/04 06:15:34;;;;;;;;;;;;;;;19.27;74.92;98007.75;1725825;81;24774;-87
2021/08/04 06:18:01;;;;;;;;;;;;;;;19.33;74.85;98008.39;1769161;80;22724;-86
2021/08/04 06:20:27;;;;;;;;;;;;;;;19.39;74.77;98013.02;1757958;80;26133;-86
2021/08/04 06:23:06;;;;;;;;;;;;;;;19.44;74.67;98014.64;1781809;79;20279;-86
2021/08/04 06:25:32;;;;;;;;;;;;;;;19.48;74.61;98021.28;1764709;80;20217;-87
2021/08/04 06:27:58;;;;;;;;;;;;;;;19.47;74.51;98018.33;1737456;82;21287;-86
2021/08/04 06:30:30;;;;;;;;;;;;;;;19.45;74.40;98020.31;1745186;80;22042;-87
2021/08/04 06:32:56;;;;;;;;;;;;;;;19.44;74.29;98022.61;1748535;80;26127;-87
2021/08/04 06:35:28;;;;;;;;;;;;;;;19.40;74.19;98016.50;1752207;81;24316;-87
2021/08/04 06:37:54;;;;;;;;;;;;;;;19.37;74.10;98026.11;1749505;81;20282;-87
2021/08/04 06:43:09;;;;;;;;;;;;;;;19.33;73.94;98012.37;1808899;79;22066;-85
2021/08/04 06:49:06;;;;;;;;;;;;;;;19.32;73.94;98023.98;1807548;78;20616;-87
2021/08/04 06:51:50;;;;;;;;;;;;;;;19.34;73.94;98023.31;1760141;80;20243;-88
2021/08/04 06:54:16;;;;;;;;;;;;;;;19.35;73.88;98023.66;1771542;80;20361;-88
2021/08/04 06:56:42;;;;;;;;;;;;;;;19.37;73.83;98022.13;1773596;80;20280;-88
2021/08/04 06:59:08;;;;;;;;;;;;;;;19.40;73.84;98023.95;1796277;79;20893;-88
2021/08/04 07:01:34;;;;;;;;;;;;;;;19.45;73.87;98025.63;1796988;79;20280;-88
2021/08/04 07:04:00;;;;;;;;;;;;;;;19.54;73.86;98028.56;1799400;79;20250;-88
2021/08/04 07:06:26;;;;;;;;;;;;;;;19.59;73.88;98030.69;1795209;79;20291;-88
2021/08/04 07:08:58;;;;;;;;;;;;;;;19.63;73.89;98027.54;1793897;79;20233;-88
2021/08/04 07:11:26;;;;;;;;;;;;;;;19.69;73.86;98025.19;1800278;79;26773;-88
2021/08/04 07:13:51;;;;;;;;;;;;;;;19.76;73.82;98018.16;1763852;81;24534;-88
2021/08/04 07:16:19;;;;;;;;;;;;;;;19.77;73.79;98017.98;1766182;79;20482;-88
2021/08/04 07:18:45;;;;;;;;;;;;;;;19.85;73.73;98019.78;1779219;78;24773;-88
2021/08/04 07:21:13;;;;;;;;;;;;;;;19.96;73.72;98024.19;1770082;79;20228;-88
2021/08/04 07:23:46;;;;;;;;;;;;;;;20.08;73.72;98024.58;1802548;78;26712;-89
2021/08/04 07:26:13;;;;;;;;;;;;;;;20.19;73.70;98022.02;1777860;78;25201;-89
2021/08/04 07:28:46;;;;;;;;;;;;;;;20.34;73.63;98024.27;1769682;80;20307;-88
2021/08/04 07:31:25;;;;;;;;;;;;;;;20.56;73.58;98022.59;1773396;80;24827;-89
2021/08/04 07:33:53;;;;;;;;;;;;;;;20.70;73.51;98019.13;1801297;78;22052;-89
2021/08/04 07:36:19;;;;;;;;;;;;;;;20.79;73.43;98023.34;1773408;80;26049;-88
2021/08/04 07:38:50;;;;;;;;;;;;;;;20.80;73.29;98024.50;1785120;80;20256;-89
2021/08/04 07:41:16;;;;;;;;;;;;;;;20.80;73.13;98021.84;1770255;80;20197;-88
2021/08/04 07:43:44;;;;;;;;;;;;;;;20.83;72.99;98020.67;1781546;79;20338;-88
2021/08/04 07:46:11;;;;;;;;;;;;;;;20.88;72.83;98019.62;1809891;78;21363;-88
2021/08/04 07:48:37;;;;;;;;;;;;;;;20.99;72.70;98025.81;1795512;78;26112;-88
2021/08/04 07:51:06;;;;;;;;;;;;;;;21.08;72.58;98026.55;1799941;78;20283;-88
2021/08/04 07:53:32;;;;;;;;;;;;;;;21.11;72.45;98023.53;1761775;81;20281;-88
2021/08/04 07:55:58;;;;;;;;;;;;;;;21.14;72.32;98032.00;1768339;80;24820;-88
2021/08/04 07:58:27;;;;;;;;;;;;;;;21.09;72.13;98030.36;1794350;79;20226;-89
2021/08/04 08:00:52;;;;;;;;;;;;;;;21.05;71.89;98036.23;1795929;79;26234;-86
2021/08/04 08:03:23;;;;;;;;;;;;;;;21.06;71.68;98029.38;1796080;79;20255;-86
2021/08/04 08:05:49;;;;;;;;;;;;;;;21.14;71.53;98035.13;1790626;79;20211;-86
2021/08/04 08:08:15;;;;;;;;;;;;;;;21.20;71.34;98039.25;1798616;79;20202;-86
2021/08/04 08:10:47;;;;;;;;;;;;;;;21.28;71.18;98039.64;1803275;79;22305;-85
2021/08/04 08:13:12;;;;;;;;;;;;;;;21.34;71.01;98036.25;1775636;79;26051;-86
2021/08/04 08:15:45;;;;;;;;;;;;;;;21.36;70.78;98037.41;1756975;79;20849;-86
2021/08/04 08:18:11;;;;;;;;;;;;;;;21.39;70.62;98032.52;1773275;79;20338;-86
2021/08/04 08:20:46;;;;;;;;;;;;;;;21.43;70.48;98029.83;1764225;79;25440;-86
2021/08/04 08:23:26;;;;;;;;;;;;;;;21.48;70.40;98031.94;1769648;81;21662;-86
2021/08/04 08:25:54;;;;;;;;;;;;;;;21.56;70.31;98028.65;1775257;79;26025;-86
2021/08/04 08:28:21;;;;;;;;;;;;;;;21.58;70.15;98031.13;1771681;79;24541;-86
2021/08/04 08:30:47;;;;;;;;;;;;;;;21.57;69.98;98032.97;1778277;79;20248;-86
2021/08/04 08:33:18;;;;;;;;;;;;;;;21.61;69.81;98040.90;1763690;80;20682;-86
2021/08/04 08:35:44;;;;;;;;;;;;;;;21.65;69.70;98042.70;1773830;80;21994;-87
2021/08/04 08:38:10;;;;;;;;;;;;;;;21.70;69.62;98042.97;1807986;79;21154;-86
2021/08/04 08:40:38;;;;;;;;;;;;;;;21.71;69.50;98045.95;1791892;79;20884;-86
2021/08/04 08:43:04;;;;;;;;;;;;;;;21.74;69.35;98046.07;1763111;80;20213;-87
2021/08/04 08:45:32;;;;;;;;;;;;;;;21.77;69.17;98040.36;1763547;80;24892;-86
2021/08/04 08:47:58;;;;;;;;;;;;;;;21.81;68.93;98044.31;1788139;79;22057;-86
2021/08/04 08:50:31;;;;;;;;;;;;;;;21.86;68.75;98044.58;1758033;80;25971;-86
2021/08/04 08:52:58;;;;;;;;;;;;;;;21.92;68.65;98049.16;1753247;80;24619;-87
2021/08/04 08:55:27;;;;;;;;;;;;;;;22.01;68.53;98052.05;1747581;80;20494;-87
2021/08/04 08:57:53;;;;;;;;;;;;;;;22.01;68.35;98050.72;1745441;80;25108;-87
2021/08/04 09:00:23;;;;;;;;;;;;;;;22.01;68.11;98056.05;1771753;80;20291;-86
2021/08/04 09:02:50;;;;;;;;;;;;;;;21.98;67.87;98059.10;1770331;80;26217;-87
2021/08/04 09:05:18;;;;;;;;;;;;;;;21.99;67.65;98048.23;1772531;80;24608;-87
2021/08/04 09:07:47;;;;;;;;;;;;;;;22.01;67.48;98046.22;1764433;80;20223;-87
2021/08/04 09:10:37;;;;;;;;;;;;;;;22.09;67.38;98046.62;1776229;80;24934;-86
2021/08/04 09:13:05;;;;;;;;;;;;;;;22.14;67.30;98041.54;1756777;79;21845;-87
2021/08/04 09:15:33;;;;;;;;;;;;;;;22.24;67.20;98042.05;1748365;80;26183;-87
2021/08/04 09:18:11;;;;;;;;;;;;;;;22.31;67.12;98034.12;1787919;79;24476;-87
2021/08/04 09:20:46;;;;;;;;;;;;;;;22.34;66.97;98037.72;1778333;79;20180;-87
2021/08/04 09:23:14;;;;;;;;;;;;;;;22.35;66.81;98036.72;1781424;79;25054;-87
2021/08/04 09:25:41;;;;;;;;;;;;;;;22.36;66.60;98030.37;1780120;79;22108;-87
2021/08/04 09:28:09;;;;;;;;;;;;;;;22.42;66.47;98029.07;1777679;79;26723;-87
2021/08/04 09:30:36;;;;;;;;;;;;;;;22.53;66.39;98033.89;1782343;79;24510;-87
2021/08/04 09:33:14;;;;;;;;;;;;;;;22.60;66.24;98034.45;1786522;79;20612;-87
2021/08/04 09:35:41;;;;;;;;;;;;;;;22.69;66.18;98034.14;1785091;79;24777;-87
2021/08/04 09:38:07;;;;;;;;;;;;;;;22.78;66.10;98030.84;1776118;79;22739;-87
2021/08/04 09:40:33;;;;;;;;;;;;;;;22.82;65.97;98034.26;1786062;79;20858;-87
2021/08/04 09:43:00;;;;;;;;;;;;;;;22.80;65.80;98034.95;1790177;79;24388;-86
2021/08/04 09:45:48;;;;;;;;;;;;;;;22.86;65.68;98036.84;1791731;78;20201;-87
2021/08/04 09:48:16;;;;;;;;;;;;;;;22.91;65.61;98036.28;1777022;79;24607;-87
2021/08/04 09:50:43;;;;;;;;;;;;;;;23.04;65.58;98035.53;1789017;78;22126;-87
2021/08/04 09:53:10;;;;;;;;;;;;;;;23.05;65.43;98027.84;1796876;79;26171;-87
2021/08/04 09:55:36;;;;;;;;;;;;;;;23.06;65.29;98032.17;1763722;80;24408;-87
2021/08/04 09:58:05;;;;;;;;;;;;;;;23.09;65.16;98035.26;1767472;80;20614;-89
2021/08/04 10:00:33;;;;;;;;;;;;;;;23.07;64.97;98032.48;1752925;80;24868;-90
2021/08/04 10:03:12;;;;;;;;;;;;;;;23.00;64.78;98036.95;1788662;79;22057;-87
2021/08/04 10:05:39;;;;;;;;;;;;;;;22.94;64.59;98039.89;1765315;80;25962;-87
2021/08/04 10:08:10;;;;;;;;;;;;;;;22.89;64.36;98044.98;1755826;80;25128;-87
2021/08/04 10:10:38;;;;;;;;;;;;;;;22.87;64.16;98044.34;1762211;80;20309;-87
2021/08/04 10:13:14;;;;;;;;;;;;;;;22.86;64.02;98041.36;1791854;79;24768;-87
2021/08/04 10:15:41;;;;;;;;;;;;;;;22.91;63.93;98041.09;1790234;79;22171;-87
2021/08/04 10:18:11;;;;;;;;;;;;;;;23.00;63.90;98031.61;1795448;79;25997;-90
2021/08/04 10:20:37;;;;;;;;;;;;;;;23.05;63.85;98035.85;1794469;79;24532;-91
2021/08/04 10:23:15;;;;;;;;;;;;;;;23.02;63.66;98037.05;1788370;79;20501;-90
2021/08/04 10:25:49;;;;;;;;;;;;;;;22.98;63.48;98033.13;1782655;79;25374;-91
2021/08/04 10:28:15;;;;;;;;;;;;;;;23.03;63.34;98032.55;1790924;79;22050;-90
2021/08/04 10:30:48;;;;;;;;;;;;;;;23.07;63.20;98033.31;1766931;80;26663;-90
2021/08/04 10:33:15;;;;;;;;;;;;;;;23.09;63.10;98031.76;1796925;78;24637;-90
2021/08/04 10:35:43;;;;;;;;;;;;;;;23.01;62.90;98029.27;1793527;79;20600;-91
2021/08/04 10:38:10;;;;;;;;;;;;;;;22.94;62.77;98034.05;1810474;79;24749;-91
2021/08/04 10:40:36;;;;;;;;;;;;;;;23.02;62.81;98025.58;1808318;79;22003;-91
2021/08/04 10:43:02;;;;;;;;;;;;;;;23.08;62.76;98031.44;1809313;78;20960;-91
2021/08/04 10:45:29;;;;;;;;;;;;;;;23.04;62.56;98027.02;1807537;79;20851;-91
2021/08/04 10:47:57;;;;;;;;;;;;;;;23.13;62.47;98032.50;1807852;79;20280;-91
2021/08/04 10:50:23;;;;;;;;;;;;;;;23.28;62.40;98036.41;1806703;79;24740;-90
2021/08/04 10:52:59;;;;;;;;;;;;;;;23.35;62.33;98044.75;1805803;79;22076;-91
2021/08/04 10:55:27;;;;;;;;;;;;;;;23.30;62.20;98041.85;1801320;79;25969;-88
2021/08/04 10:58:06;;;;;;;;;;;;;;;23.35;62.15;98028.73;1759866;79;24486;-88
2021/08/04 11:00:34;;;;;;;;;;;;;;;23.49;62.17;98028.84;1753918;81;20273;-88
2021/08/04 11:03:00;;;;;;;;;;;;;;;23.59;62.15;98026.11;1755689;81;24740;-88
2021/08/04 11:05:33;;;;;;;;;;;;;;;23.70;62.14;98018.85;1756141;81;22608;-88
2021/08/04 11:08:18;;;;;;;;;;;;;;;23.88;62.12;98021.48;1799736;79;25998;-88
2021/08/04 11:10:47;;;;;;;;;;;;;;;23.92;62.05;98014.19;1802809;78;25314;-87
2021/08/04 11:13:14;;;;;;;;;;;;;;;23.95;61.93;98028.47;1807692;79;20302;-87
2021/08/04 11:15:40;;;;;;;;;;;;;;;23.90;61.76;98028.26;1792788;79;24912;-89
2021/08/04 11:18:22;;;;;;;;;;;;;;;23.98;61.66;98033.95;1761234;81;20370;-89
2021/08/04 11:20:49;;;;;;;;;;;;;;;24.03;61.57;98028.81;1734595;81;26846;-89
2021/08/04 11:23:21;;;;;;;;;;;;;;;24.05;61.43;98029.45;1735577;79;24478;-89
2021/08/04 11:25:47;;;;;;;;;;;;;;;23.97;61.30;98030.45;1752187;79;20220;-89
2021/08/04 11:28:14;;;;;;;;;;;;;;;23.94;61.19;98021.51;1753524;81;20853;-89
2021/08/04 11:30:43;;;;;;;;;;;;;;;23.96;61.05;98027.45;1775209;80;21954;-89
2021/08/04 11:33:29;;;;;;;;;;;;;;;23.93;60.94;98018.52;1796798;79;26197;-89
2021/08/04 11:36:03;;;;;;;;;;;;;;;23.89;60.81;98029.31;1762823;81;25388;-89
2021/08/04 11:38:38;;;;;;;;;;;;;;;23.81;60.71;98023.30;1794457;79;20213;-89
2021/08/04 11:41:17;;;;;;;;;;;;;;;23.72;60.63;98016.81;1762794;81;24776;-89
2021/08/04 11:43:46;;;;;;;;;;;;;;;23.72;60.51;98020.83;1770844;80;22015;-89
2021/08/04 11:46:32;;;;;;;;;;;;;;;23.73;60.44;98030.97;1781135;79;26029;-89
2021/08/04 11:48:59;;;;;;;;;;;;;;;23.65;60.28;98028.48;1811051;79;24449;-89
2021/08/04 11:51:31;;;;;;;;;;;;;;;23.62;60.19;98025.69;1794054;79;20192;-89
2021/08/04 11:53:58;;;;;;;;;;;;;;;23.74;60.21;98023.27;1797648;79;24718;-89
2021/08/04 11:56:32;;;;;;;;;;;;;;;23.75;60.14;98021.75;1757994;81;22840;-89
2021/08/04 11:59:02;;;;;;;;;;;;;;;23.70;60.06;98022.03;1809673;79;26145;-89
2021/08/04 12:01:29;;;;;;;;;;;;;;;23.60;59.99;98018.41;1807586;78;24414;-89
2021/08/04 12:04:11;;;;;;;;;;;;;;;23.73;60.02;98017.10;1810655;79;20531;-90
2021/08/04 12:06:38;;;;;;;;;;;;;;;23.91;60.05;98027.23;1809065;78;24832;-89
2021/08/04 12:09:20;;;;;;;;;;;;;;;23.98;59.99;98022.74;1811228;79;22746;-89
2021/08/04 12:11:53;;;;;;;;;;;;;;;24.00;59.92;98029.23;1807897;77;26566;-90
2021/08/04 12:14:20;;;;;;;;;;;;;;;23.95;59.81;98019.13;1805631;79;24478;-90
2021/08/04 12:16:48;;;;;;;;;;;;;;;23.97;59.72;98018.41;1807520;79;20178;-91
2021/08/04 12:19:33;;;;;;;;;;;;;;;23.92;59.60;98014.19;1807558;79;25534;-89
2021/08/04 12:22:00;;;;;;;;;;;;;;;23.87;59.48;98020.66;1792728;79;21968;-89
2021/08/04 12:24:26;;;;;;;;;;;;;;;23.84;59.40;98014.90;1794500;79;25963;-90
2021/08/04 12:26:53;;;;;;;;;;;;;;;23.75;59.31;98010.23;1774955;80;24456;-89
2021/08/04 12:29:25;;;;;;;;;;;;;;;23.66;59.23;98005.59;1780559;79;20264;-90
2021/08/04 12:32:00;;;;;;;;;;;;;;;23.64;59.17;98006.29;1779494;80;24829;-91
2021/08/04 12:34:26;;;;;;;;;;;;;;;23.61;59.11;98009.38;1803865;77;21951;-89
2021/08/04 12:36:57;;;;;;;;;;;;;;;23.63;59.16;98007.81;1799758;79;25788;-89
2021/08/04 12:39:23;;;;;;;;;;;;;;;23.64;59.19;98002.80;1763972;80;25349;-90
2021/08/04 12:41:49;;;;;;;;;;;;;;;23.72;59.26;97997.28;1799358;79;20332;-89
2021/08/04 12:44:16;;;;;;;;;;;;;;;23.83;59.23;98006.05;1807815;79;24727;-90
2021/08/04 12:46:45;;;;;;;;;;;;;;;23.82;59.15;98007.08;1813109;78;21973;-89
2021/08/04 12:49:16;;;;;;;;;;;;;;;23.69;59.06;97995.82;1796772;79;25997;-89
2021/08/04 12:51:44;;;;;;;;;;;;;;;23.58;59.04;97986.22;1809147;79;25077;-89
2021/08/04 12:54:13;;;;;;;;;;;;;;;23.54;59.06;97992.48;1807409;79;20301;-90
2021/08/04 12:56:41;;;;;;;;;;;;;;;23.56;59.07;97982.95;1806099;79;25362;-90
2021/08/04 12:59:09;;;;;;;;;;;;;;;23.61;59.05;97975.98;1810839;79;22397;-90
2021/08/04 13:01:37;;;;;;;;;;;;;;;23.70;59.07;97974.77;1760002;80;26927;-89